Time;durP1;ratioP1;P1;durP2;ratioP2;P2;SDS_P1;SDS_P2;PMS_P1;PMS_P2;Temp;Humidity;BMP_temperature;BMP_pressure;BME280_temperature;BME280_humidity;BME280_pressure;Samples;Min_cycle;Max_cycle;Signal;HPM_P1;HPM_P2
2022/12/10 00:00:15;;;;;;;20.40;9.73;;;3.20;99.90;;;;;;5105535;28;20465;-88
2022/12/10 00:02:41;;;;;;;20.57;10.17;;;3.20;99.90;;;;;;5114687;28;20057;-87
2022/12/10 00:05:07;;;;;;;21.60;10.53;;;3.20;99.90;;;;;;5112665;28;20023;-85
2022/12/10 00:07:32;;;;;;;20.17;9.77;;;3.20;99.90;;;;;;5107418;28;20035;-88
2022/12/10 00:09:58;;;;;;;25.77;10.97;;;3.20;99.90;;;;;;5114961;28;20031;-88
2022/12/10 00:12:24;;;;;;;24.27;9.80;;;3.20;99.90;;;;;;5116527;28;20522;-89
2022/12/10 00:14:49;;;;;;;21.17;9.93;;;3.10;99.90;;;;;;5116387;28;20031;-88
2022/12/10 00:17:15;;;;;;;20.70;10.03;;;3.20;99.90;;;;;;5114352;28;20058;-88
2022/12/10 00:19:40;;;;;;;19.00;9.50;;;3.20;99.90;;;;;;5116321;28;20058;-88
2022/12/10 00:22:06;;;;;;;23.70;9.90;;;3.20;99.90;;;;;;5114844;28;20027;-88
2022/12/10 00:24:31;;;;;;;21.27;10.07;;;3.20;99.90;;;;;;5114985;28;20059;-88
2022/12/10 00:26:57;;;;;;;22.57;10.37;;;3.20;99.90;;;;;;5114665;28;20028;-88
2022/12/10 00:29:23;;;;;;;21.13;10.07;;;3.10;99.90;;;;;;5115154;28;20024;-89
2022/12/10 00:31:48;;;;;;;23.00;9.60;;;3.10;99.90;;;;;;5115628;28;20024;-86
2022/12/10 00:34:14;;;;;;;21.63;10.27;;;3.20;99.90;;;;;;5114208;28;20024;-86
2022/12/10 00:36:43;;;;;;;23.80;10.53;;;3.20;99.90;;;;;;5114701;28;20415;-85
2022/12/10 00:39:11;;;;;;;22.33;10.63;;;3.20;99.90;;;;;;5114413;28;20109;-85
2022/12/10 00:41:37;;;;;;;19.00;9.97;;;3.20;99.90;;;;;;5114334;28;20024;-85
2022/12/10 00:44:02;;;;;;;23.50;9.63;;;3.10;99.90;;;;;;5113970;28;20039;-85
2022/12/10 00:46:28;;;;;;;20.17;9.87;;;3.10;99.90;;;;;;5114335;28;20099;-86
2022/12/10 00:48:54;;;;;;;21.83;10.60;;;3.10;99.90;;;;;;5114239;28;20129;-83
2022/12/10 00:51:22;;;;;;;19.37;9.63;;;3.10;99.90;;;;;;5114321;28;20035;-86
2022/12/10 00:53:50;;;;;;;21.03;9.80;;;3.10;99.90;;;;;;5114701;28;20031;-86
2022/12/10 00:56:20;;;;;;;22.43;10.53;;;3.10;99.90;;;;;;5114661;28;20102;-86
2022/12/10 00:58:47;;;;;;;21.70;9.43;;;3.10;99.90;;;;;;5113943;28;20034;-84
2022/12/10 01:01:40;;;;;;;22.37;10.50;;;3.10;99.90;;;;;;5113801;28;20404;-84
2022/12/10 01:04:10;;;;;;;24.97;11.13;;;3.10;99.90;;;;;;5111469;28;20032;-84
2022/12/10 01:06:41;;;;;;;24.77;11.07;;;3.00;99.90;;;;;;5114424;28;20059;-84
2022/12/10 01:09:09;;;;;;;22.53;10.10;;;3.00;99.90;;;;;;5114998;28;20034;-84
2022/12/10 01:11:37;;;;;;;20.97;9.83;;;3.00;99.90;;;;;;5114004;28;20123;-84
2022/12/10 01:14:03;;;;;;;23.40;10.33;;;3.00;99.90;;;;;;5114765;28;20034;-84
2022/12/10 01:16:29;;;;;;;23.60;10.70;;;3.00;99.90;;;;;;5113659;28;20134;-84
2022/12/10 01:18:59;;;;;;;24.00;10.47;;;3.00;99.90;;;;;;5114915;28;20503;-81
2022/12/10 01:21:26;;;;;;;21.20;10.30;;;3.00;99.90;;;;;;5113626;28;20023;-85
2022/12/10 01:23:52;;;;;;;21.80;10.10;;;2.90;99.90;;;;;;5114848;27;20028;-84
2022/12/10 01:26:21;;;;;;;20.07;10.00;;;3.00;99.90;;;;;;5114362;28;20044;-84
2022/12/10 01:28:47;;;;;;;23.23;10.63;;;3.00;99.90;;;;;;5114044;28;20019;-83
2022/12/10 01:31:20;;;;;;;23.03;10.47;;;3.00;99.90;;;;;;5113306;28;20034;-84
2022/12/10 01:33:46;;;;;;;18.77;9.70;;;3.00;99.90;;;;;;5114876;28;20024;-84
2022/12/10 01:36:20;;;;;;;23.73;10.93;;;3.00;99.90;;;;;;5113071;28;20055;-84
2022/12/10 01:38:47;;;;;;;24.30;10.87;;;3.00;99.90;;;;;;5114633;28;20047;-86
2022/12/10 01:41:26;;;;;;;21.03;10.13;;;2.90;99.90;;;;;;5113926;28;20047;-84
2022/12/10 01:43:51;;;;;;;20.33;10.47;;;3.00;99.90;;;;;;5113575;28;20049;-84
2022/12/10 01:46:18;;;;;;;21.67;10.40;;;3.00;99.90;;;;;;5113030;28;20422;-84
2022/12/10 01:48:43;;;;;;;20.83;9.53;;;3.00;99.90;;;;;;5113366;28;20027;-84
2022/12/10 01:51:11;;;;;;;25.17;11.03;;;2.90;99.90;;;;;;5113825;28;20035;-83
2022/12/10 01:53:37;;;;;;;22.53;10.43;;;2.90;99.90;;;;;;5114411;28;20024;-84
2022/12/10 01:56:03;;;;;;;23.03;10.40;;;2.90;99.90;;;;;;5113942;28;20028;-84
2022/12/10 01:58:29;;;;;;;23.77;10.87;;;2.90;99.90;;;;;;5113373;28;20031;-83
2022/12/10 02:01:06;;;;;;;23.83;10.70;;;2.90;99.90;;;;;;5113074;28;20490;-84
2022/12/10 02:03:58;;;;;;;24.60;10.53;;;2.90;99.90;;;;;;5113222;28;20027;-84
2022/12/10 02:06:44;;;;;;;20.70;9.63;;;2.90;99.90;;;;;;5113153;28;20056;-84
2022/12/10 02:09:18;;;;;;;24.67;10.70;;;2.90;99.90;;;;;;5113656;28;20035;-83
2022/12/10 02:12:01;;;;;;;24.37;10.60;;;3.00;99.90;;;;;;5117299;28;20035;-84
2022/12/10 02:14:49;;;;;;;24.43;10.90;;;3.00;99.90;;;;;;5118202;28;20103;-84
2022/12/10 02:17:20;;;;;;;25.17;11.53;;;3.00;99.90;;;;;;5116527;28;20146;-84
2022/12/10 02:20:00;;;;;;;26.63;12.30;;;3.00;99.90;;;;;;5118480;28;20024;-84
2022/12/10 02:22:31;;;;;;;20.03;10.37;;;2.90;99.90;;;;;;5116883;28;20273;-84
2022/12/10 02:24:58;;;;;;;22.50;10.60;;;2.90;99.90;;;;;;5117217;28;20088;-84
2022/12/10 02:27:47;;;;;;;22.03;10.20;;;2.90;99.90;;;;;;5116825;28;20118;-84
2022/12/10 02:30:13;;;;;;;21.30;10.20;;;2.90;99.90;;;;;;5077160;28;20392;-83
2022/12/10 02:32:41;;;;;;;21.47;10.70;;;2.90;99.90;;;;;;5118161;28;20028;-82
2022/12/10 02:35:18;;;;;;;24.80;10.90;;;2.90;99.90;;;;;;5116670;28;20472;-81
2022/12/10 02:37:59;;;;;;;23.87;10.03;;;2.90;99.90;;;;;;5116990;28;20051;-82
2022/12/10 02:40:30;;;;;;;21.97;10.77;;;3.00;99.90;;;;;;5116737;28;20118;-83
2022/12/10 02:42:56;;;;;;;22.33;10.45;;;2.90;99.90;;;;;;5117312;28;20028;-81
2022/12/10 02:45:24;;;;;;;20.17;9.83;;;3.00;99.90;;;;;;5116225;28;20106;-83
2022/12/10 02:47:51;;;;;;;25.67;11.10;;;2.90;99.90;;;;;;5117726;28;20457;-83
2022/12/10 02:50:21;;;;;;;22.90;10.90;;;2.90;99.90;;;;;;5115696;28;20573;-84
2022/12/10 02:52:46;;;;;;;24.57;11.53;;;2.90;99.90;;;;;;5116520;28;20081;-84
2022/12/10 02:55:13;;;;;;;24.47;11.63;;;2.80;99.90;;;;;;5116107;28;20031;-83
2022/12/10 02:57:47;;;;;;;26.90;11.60;;;2.80;99.90;;;;;;5116603;28;20023;-85
2022/12/10 03:00:18;;;;;;;24.70;11.60;;;2.80;99.90;;;;;;5117041;28;20024;-86
2022/12/10 03:03:08;;;;;;;24.43;11.70;;;2.80;99.90;;;;;;5117132;28;20028;-84
2022/12/10 03:06:05;;;;;;;23.43;10.83;;;2.80;99.90;;;;;;5117220;28;20078;-86
2022/12/10 03:08:39;;;;;;;21.67;10.17;;;2.80;99.90;;;;;;5116433;28;20077;-84
2022/12/10 03:11:13;;;;;;;28.43;11.07;;;2.80;99.90;;;;;;5115610;28;20023;-81
2022/12/10 03:14:04;;;;;;;25.73;10.73;;;2.80;99.90;;;;;;5117161;28;20027;-82
2022/12/10 03:16:39;;;;;;;24.85;11.82;;;2.70;99.90;;;;;;5116558;28;20050;-84
2022/12/10 03:19:11;;;;;;;24.03;11.13;;;2.70;99.90;;;;;;5116649;28;20157;-80
2022/12/10 03:21:39;;;;;;;25.00;11.90;;;2.70;99.90;;;;;;5116200;28;20392;-84
2022/12/10 03:24:06;;;;;;;24.70;11.67;;;2.70;99.90;;;;;;5115793;28;20081;-81
2022/12/10 03:26:32;;;;;;;25.03;11.00;;;2.80;99.90;;;;;;5116289;28;20031;-83
2022/12/10 03:29:03;;;;;;;26.83;11.27;;;2.80;99.90;;;;;;5116655;28;20026;-82
2022/12/10 03:31:30;;;;;;;23.00;10.93;;;2.70;99.90;;;;;;5115619;28;20034;-82
2022/12/10 03:33:56;;;;;;;26.37;12.33;;;2.70;99.90;;;;;;5116826;28;20028;-83
2022/12/10 03:36:23;;;;;;;26.43;11.40;;;2.80;99.90;;;;;;5116282;28;20031;-83
2022/12/10 03:38:50;;;;;;;25.27;11.17;;;2.80;99.90;;;;;;5115732;28;20023;-83
2022/12/10 03:41:15;;;;;;;25.50;11.80;;;2.80;99.90;;;;;;5114792;28;20027;-83
2022/12/10 03:43:56;;;;;;;26.10;11.63;;;2.70;99.90;;;;;;5116704;28;20077;-83
2022/12/10 03:46:23;;;;;;;22.43;10.53;;;2.70;99.90;;;;;;5115818;28;20035;-83
2022/12/10 03:48:49;;;;;;;27.63;12.50;;;2.70;99.90;;;;;;5115581;28;20033;-83
2022/12/10 03:51:14;;;;;;;24.43;11.43;;;2.70;99.90;;;;;;5116084;28;20028;-82
2022/12/10 03:53:40;;;;;;;26.90;12.23;;;2.70;99.90;;;;;;5115408;28;20122;-83
2022/12/10 03:56:06;;;;;;;29.63;12.03;;;2.70;99.90;;;;;;5114986;28;20393;-81
2022/12/10 03:58:32;;;;;;;28.23;11.20;;;2.70;99.90;;;;;;5116216;28;20027;-82
2022/12/10 04:00:57;;;;;;;28.40;12.27;;;2.70;99.90;;;;;;5115422;28;20388;-83
2022/12/10 04:03:23;;;;;;;26.00;12.13;;;2.70;99.90;;;;;;5114839;28;20031;-83
2022/12/10 04:05:48;;;;;;;27.67;12.10;;;2.70;99.90;;;;;;5115300;28;20035;-83
2022/12/10 04:08:14;;;;;;;24.77;11.30;;;2.60;99.90;;;;;;5115638;28;20375;-83
2022/12/10 04:10:39;;;;;;;27.20;11.93;;;2.70;99.90;;;;;;5115259;28;20019;-82
2022/12/10 04:18:33;;;;;;;28.27;11.87;;;2.60;99.90;;;;;;5116060;28;20035;-83
2022/12/10 04:29:11;;;;;;;25.43;11.70;;;2.70;99.90;;;;;;5115239;28;20093;-82
2022/12/10 04:31:37;;;;;;;29.20;12.60;;;2.70;99.90;;;;;;5114559;28;20023;-82
2022/12/10 04:34:02;;;;;;;25.20;11.60;;;2.70;99.90;;;;;;5114553;28;20054;-81
2022/12/10 04:36:28;;;;;;;28.93;11.90;;;2.70;99.90;;;;;;5113993;28;20023;-84
2022/12/10 04:38:53;;;;;;;27.13;12.73;;;2.70;99.90;;;;;;5115334;28;20092;-84
2022/12/10 04:41:19;;;;;;;29.70;11.93;;;2.70;99.90;;;;;;5113874;28;20031;-84
2022/12/10 04:43:44;;;;;;;31.23;13.40;;;2.70;99.90;;;;;;5114511;28;20457;-84
2022/12/10 04:46:11;;;;;;;28.97;13.27;;;2.70;99.90;;;;;;5113558;28;20055;-82
2022/12/10 04:48:37;;;;;;;27.03;12.60;;;2.70;99.90;;;;;;5114943;28;20464;-84
2022/12/10 04:51:02;;;;;;;27.97;12.43;;;2.70;99.90;;;;;;5114287;28;20024;-84
2022/12/10 04:53:28;;;;;;;30.50;13.40;;;2.70;99.90;;;;;;5113445;28;20019;-84
2022/12/10 04:55:54;;;;;;;29.03;13.07;;;2.60;99.90;;;;;;5113774;28;20065;-84
2022/12/10 04:58:19;;;;;;;32.90;13.47;;;2.60;99.90;;;;;;5113511;28;20031;-84
2022/12/10 05:00:45;;;;;;;29.80;12.97;;;2.60;99.90;;;;;;5113865;28;20024;-84
2022/12/10 05:03:10;;;;;;;27.93;12.87;;;2.70;99.90;;;;;;5113710;28;20601;-82
2022/12/10 05:05:36;;;;;;;32.10;12.57;;;2.60;99.90;;;;;;5113948;28;20039;-85
2022/12/10 05:08:02;;;;;;;30.13;13.20;;;2.60;99.90;;;;;;5114733;28;20145;-85
2022/12/10 05:10:28;;;;;;;30.50;13.23;;;2.50;99.90;;;;;;5112825;28;20030;-86
2022/12/10 05:12:53;;;;;;;28.90;12.90;;;2.50;99.90;;;;;;5114706;28;20027;-86
2022/12/10 05:15:19;;;;;;;31.47;13.70;;;2.50;99.90;;;;;;5114405;28;20031;-82
2022/12/10 05:17:44;;;;;;;26.63;11.97;;;2.50;99.90;;;;;;5113622;28;20066;-83
2022/12/10 05:20:10;;;;;;;28.97;13.33;;;2.50;99.90;;;;;;5113383;28;20122;-81
2022/12/10 05:25:20;;;;;;;32.37;13.23;;;2.50;99.90;;;;;;5114083;28;20143;-85
2022/12/10 05:27:45;;;;;;;27.93;12.53;;;2.50;99.90;;;;;;5113594;28;20047;-87
2022/12/10 05:30:11;;;;;;;32.93;14.23;;;2.50;99.90;;;;;;5113977;28;20457;-82
2022/12/10 05:32:37;;;;;;;29.60;13.40;;;2.50;99.90;;;;;;5114186;28;20020;-88
2022/12/10 05:35:04;;;;;;;30.60;13.20;;;2.50;99.90;;;;;;5113611;28;20050;-87
2022/12/10 05:37:29;;;;;;;28.83;12.90;;;2.50;99.90;;;;;;5113315;28;20057;-87
2022/12/10 05:39:55;;;;;;;32.83;12.93;;;2.60;99.90;;;;;;5113489;28;20024;-88
2022/12/10 05:42:20;;;;;;;29.53;12.70;;;2.60;99.90;;;;;;5113198;28;20031;-87
2022/12/10 05:44:46;;;;;;;27.30;12.70;;;2.60;99.90;;;;;;5113695;28;20023;-87
2022/12/10 05:47:11;;;;;;;29.77;12.37;;;2.70;99.90;;;;;;5113357;28;20019;-82
2022/12/10 05:49:37;;;;;;;28.27;12.33;;;2.60;99.90;;;;;;5113173;28;20460;-88
2022/12/10 05:52:03;;;;;;;26.93;12.27;;;2.60;99.90;;;;;;5113308;28;20381;-87
2022/12/10 05:54:28;;;;;;;33.93;13.70;;;2.60;99.90;;;;;;5112650;28;20027;-87
2022/12/10 05:56:54;;;;;;;29.00;12.37;;;2.50;99.90;;;;;;5113238;28;20081;-87
2022/12/10 05:59:20;;;;;;;27.33;12.33;;;2.50;99.90;;;;;;5112688;28;20027;-87
2022/12/10 06:01:45;;;;;;;28.67;12.17;;;2.60;99.90;;;;;;5113282;28;20119;-87
2022/12/10 06:04:11;;;;;;;29.57;12.90;;;2.60;99.90;;;;;;5113297;28;20484;-83
2022/12/10 06:06:39;;;;;;;31.40;12.80;;;2.50;99.90;;;;;;5113183;28;20114;-87
2022/12/10 06:09:06;;;;;;;31.13;13.23;;;2.60;99.90;;;;;;5114482;28;20023;-88
2022/12/10 06:11:32;;;;;;;30.33;12.17;;;2.50;99.90;;;;;;5112874;28;20164;-87
2022/12/10 06:13:59;;;;;;;29.33;12.90;;;2.50;99.90;;;;;;5113236;28;20028;-87
2022/12/10 06:16:26;;;;;;;26.47;12.17;;;2.50;99.90;;;;;;5113630;28;20052;-87
2022/12/10 06:18:52;;;;;;;30.97;13.07;;;2.40;99.90;;;;;;5113198;28;20079;-87
2022/12/10 06:21:19;;;;;;;32.03;13.57;;;2.40;99.90;;;;;;5113817;28;20023;-87
2022/12/10 06:23:45;;;;;;;30.90;12.70;;;2.40;99.90;;;;;;5114193;28;20472;-86
2022/12/10 06:26:16;;;;;;;27.23;12.50;;;2.40;99.90;;;;;;5114225;28;20071;-84
2022/12/10 06:28:44;;;;;;;33.33;14.00;;;2.40;99.90;;;;;;5113419;28;20020;-84
2022/12/10 06:31:10;;;;;;;28.20;12.37;;;2.40;99.90;;;;;;5112976;28;20084;-84
2022/12/10 06:33:36;;;;;;;29.83;12.90;;;2.40;99.90;;;;;;5113287;28;20027;-84
2022/12/10 06:36:06;;;;;;;26.47;11.30;;;2.40;99.90;;;;;;5113143;28;20437;-84
2022/12/10 06:38:33;;;;;;;30.57;12.93;;;2.30;99.90;;;;;;5112578;28;20026;-85
2022/12/10 06:40:58;;;;;;;30.63;13.47;;;2.30;99.90;;;;;;5113017;28;20465;-85
2022/12/10 06:43:24;;;;;;;31.50;13.00;;;2.30;99.90;;;;;;5113600;28;20080;-85
2022/12/10 06:45:50;;;;;;;28.17;13.03;;;2.30;99.90;;;;;;5113017;28;20027;-88
2022/12/10 06:48:15;;;;;;;28.93;12.70;;;2.30;99.90;;;;;;5113456;28;20028;-83
2022/12/10 06:50:41;;;;;;;28.00;13.30;;;2.30;99.90;;;;;;5112426;28;20452;-87
2022/12/10 06:53:06;;;;;;;33.27;13.43;;;2.30;99.90;;;;;;5112998;28;20115;-87
2022/12/10 06:55:32;;;;;;;27.00;11.97;;;2.30;99.90;;;;;;5113465;28;20032;-85
2022/12/10 06:57:57;;;;;;;30.93;13.03;;;2.20;99.90;;;;;;5103137;28;20475;-85
2022/12/10 07:00:23;;;;;;;29.80;12.97;;;2.30;99.90;;;;;;5113249;28;20032;-85
2022/12/10 07:02:49;;;;;;;27.80;12.70;;;2.30;99.90;;;;;;5111283;28;20107;-85
2022/12/10 07:05:15;;;;;;;33.87;12.37;;;2.20;99.90;;;;;;5115833;28;20028;-83
2022/12/10 07:07:40;;;;;;;30.77;11.77;;;2.30;99.90;;;;;;5095894;28;20020;-84
2022/12/10 07:10:06;;;;;;;28.23;12.37;;;2.20;99.90;;;;;;5095401;28;20024;-85
2022/12/10 07:12:32;;;;;;;30.27;12.43;;;2.20;99.90;;;;;;5096189;28;20082;-86
2022/12/10 07:14:58;;;;;;;26.93;12.00;;;2.30;99.90;;;;;;5095894;28;20454;-86
2022/12/10 07:17:23;;;;;;;31.87;12.40;;;2.30;99.90;;;;;;5095754;28;20512;-85
2022/12/10 07:19:49;;;;;;;27.83;12.10;;;2.30;99.90;;;;;;5116663;28;20023;-85
2022/12/10 07:22:15;;;;;;;29.73;12.20;;;2.30;99.90;;;;;;5115728;28;20030;-84
2022/12/10 07:24:40;;;;;;;27.80;12.37;;;2.30;99.90;;;;;;5104753;28;20071;-84
2022/12/10 07:27:07;;;;;;;32.93;13.70;;;2.30;99.90;;;;;;5106030;28;20059;-87
2022/12/10 07:29:32;;;;;;;32.57;13.27;;;2.30;99.90;;;;;;5116415;28;20020;-84
2022/12/10 07:31:58;;;;;;;27.70;12.00;;;2.20;99.90;;;;;;5115749;28;20016;-84
2022/12/10 07:34:24;;;;;;;32.57;13.03;;;2.20;99.90;;;;;;5105271;28;20032;-83
2022/12/10 07:36:49;;;;;;;28.97;12.13;;;2.20;99.90;;;;;;5113650;28;20031;-84
2022/12/10 07:39:17;;;;;;;31.50;13.33;;;2.20;99.90;;;;;;5115879;28;20380;-84
2022/12/10 07:41:51;;;;;;;29.00;12.90;;;2.20;99.90;;;;;;5105281;28;20028;-83
2022/12/10 07:44:25;;;;;;;32.47;12.87;;;2.20;99.90;;;;;;5109515;28;20034;-81
2022/12/10 07:46:53;;;;;;;29.40;12.50;;;2.20;99.90;;;;;;5112869;28;20524;-85
2022/12/10 07:49:19;;;;;;;30.80;13.27;;;2.20;99.90;;;;;;5096080;28;20479;-82
2022/12/10 07:51:46;;;;;;;30.47;12.87;;;2.30;99.90;;;;;;5095007;28;20028;-84
2022/12/10 07:54:13;;;;;;;30.53;12.70;;;2.20;99.90;;;;;;5114105;28;20469;-85
2022/12/10 07:56:39;;;;;;;29.77;12.23;;;2.20;99.90;;;;;;5102299;28;20046;-86
2022/12/10 07:59:04;;;;;;;33.23;13.10;;;2.20;99.90;;;;;;5091403;28;20705;-84
2022/12/10 08:01:30;;;;;;;27.47;11.67;;;2.30;99.90;;;;;;5101531;28;20028;-83
2022/12/10 08:03:56;;;;;;;28.23;12.37;;;2.30;99.90;;;;;;5093402;28;20393;-85
2022/12/10 08:06:23;;;;;;;29.13;11.73;;;2.40;99.90;;;;;;5097608;28;20036;-84
2022/12/10 08:08:50;;;;;;;29.37;11.87;;;2.40;99.90;;;;;;5099030;28;20153;-85
2022/12/10 08:11:17;;;;;;;23.50;11.37;;;2.40;99.90;;;;;;5115702;28;20106;-88
2022/12/10 08:13:43;;;;;;;29.17;11.57;;;2.40;99.90;;;;;;5114970;28;20084;-85
2022/12/10 08:16:14;;;;;;;27.33;12.50;;;2.40;99.90;;;;;;5114850;28;20043;-84
2022/12/10 08:18:40;;;;;;;30.43;12.87;;;2.40;99.90;;;;;;5113089;28;20026;-85
2022/12/10 08:21:20;;;;;;;25.87;10.83;;;2.40;99.90;;;;;;5114844;28;20260;-85
2022/12/10 08:23:46;;;;;;;26.83;12.00;;;2.40;99.90;;;;;;5111107;28;20027;-85
2022/12/10 08:26:16;;;;;;;27.57;11.87;;;2.50;99.90;;;;;;5111697;28;20104;-86
2022/12/10 08:28:42;;;;;;;26.63;12.27;;;2.50;99.90;;;;;;5097995;28;20048;-85
2022/12/10 08:31:09;;;;;;;27.27;11.70;;;2.40;99.90;;;;;;5114547;28;20031;-86
2022/12/10 08:33:36;;;;;;;29.50;11.83;;;2.50;99.90;;;;;;5114008;28;20039;-84
2022/12/10 08:36:03;;;;;;;25.00;11.90;;;2.50;99.90;;;;;;5113997;28;20023;-83
2022/12/10 08:38:30;;;;;;;27.33;11.77;;;2.50;99.90;;;;;;5112572;28;20147;-83
2022/12/10 08:40:55;;;;;;;24.27;11.67;;;2.40;99.90;;;;;;5100868;28;20102;-83
2022/12/10 08:43:21;;;;;;;27.57;11.23;;;2.40;99.90;;;;;;5103846;28;20059;-82
2022/12/10 08:45:47;;;;;;;27.20;11.93;;;2.40;99.90;;;;;;5099805;28;20442;-82
2022/12/10 08:48:12;;;;;;;28.53;11.33;;;2.40;99.90;;;;;;5100955;28;20026;-85
2022/12/10 08:50:38;;;;;;;25.67;12.00;;;2.40;99.90;;;;;;5103052;28;20020;-85
2022/12/10 08:53:04;;;;;;;27.43;11.83;;;2.40;99.90;;;;;;5114909;28;20419;-84
2022/12/10 08:55:30;;;;;;;28.57;11.57;;;2.40;99.90;;;;;;5113465;28;20060;-84
2022/12/10 08:57:58;;;;;;;24.37;10.93;;;2.40;99.90;;;;;;5111699;28;20080;-84
2022/12/10 09:00:25;;;;;;;23.53;10.97;;;2.50;99.90;;;;;;5112638;28;20028;-82
2022/12/10 09:02:50;;;;;;;22.00;10.23;;;2.50;99.90;;;;;;5110520;28;20083;-87
2022/12/10 09:05:16;;;;;;;20.37;10.03;;;2.50;99.90;;;;;;5097501;28;20039;-87
2022/12/10 09:07:42;;;;;;;25.63;11.37;;;2.50;99.90;;;;;;5110356;28;20577;-85
2022/12/10 09:10:11;;;;;;;22.83;10.73;;;2.50;99.90;;;;;;5113323;28;20024;-86
2022/12/10 09:12:37;;;;;;;27.93;10.97;;;2.50;99.90;;;;;;5113544;28;20512;-85
2022/12/10 09:15:03;;;;;;;23.47;10.50;;;2.60;99.90;;;;;;5113010;28;20047;-86
2022/12/10 09:17:29;;;;;;;20.27;10.27;;;2.60;99.90;;;;;;5112173;28;20135;-85
2022/12/10 09:19:55;;;;;;;23.70;10.43;;;2.60;99.90;;;;;;5113553;28;20051;-86
2022/12/10 09:22:20;;;;;;;21.40;10.37;;;2.60;99.90;;;;;;5113282;28;20047;-83
2022/12/10 09:24:46;;;;;;;18.97;9.53;;;2.70;99.90;;;;;;5113672;28;20036;-85
2022/12/10 09:27:11;;;;;;;22.53;10.10;;;2.70;99.90;;;;;;5101163;28;20036;-85
2022/12/10 09:29:37;;;;;;;21.67;10.77;;;2.60;99.90;;;;;;5111628;28;20485;-85
2022/12/10 09:32:02;;;;;;;21.60;10.80;;;2.60;99.90;;;;;;5113215;28;20027;-85
2022/12/10 09:34:28;;;;;;;18.30;9.67;;;2.60;99.90;;;;;;5113623;28;20027;-84
2022/12/10 09:36:54;;;;;;;22.17;9.87;;;2.60;99.90;;;;;;5114200;28;20511;-84
2022/12/10 09:39:20;;;;;;;19.80;9.37;;;2.60;99.90;;;;;;5113370;28;20024;-85
2022/12/10 09:41:55;;;;;;;22.50;9.97;;;2.60;99.90;;;;;;5112165;28;20024;-89
2022/12/10 09:44:58;;;;;;;19.63;9.13;;;2.60;99.90;;;;;;5105269;28;20059;-87
2022/12/10 09:47:47;;;;;;;19.43;9.27;;;2.60;99.90;;;;;;5058052;28;20036;-82
2022/12/10 09:50:22;;;;;;;22.03;10.00;;;2.60;99.90;;;;;;5112866;28;20024;-84
2022/12/10 09:52:49;;;;;;;21.17;9.67;;;2.60;99.90;;;;;;5104949;28;20020;-84
2022/12/10 09:55:22;;;;;;;20.93;9.47;;;2.60;99.90;;;;;;5113280;28;20028;-87
2022/12/10 09:57:53;;;;;;;18.87;9.07;;;2.60;99.90;;;;;;5110618;28;20516;-89
2022/12/10 10:00:23;;;;;;;17.10;8.87;;;2.60;99.90;;;;;;5112336;28;20028;-87
2022/12/10 10:02:50;;;;;;;21.70;9.90;;;2.60;99.90;;;;;;5102249;28;20039;-86
2022/12/10 10:05:27;;;;;;;22.43;9.20;;;2.60;99.90;;;;;;5110114;28;20165;-85
2022/12/10 10:08:00;;;;;;;21.43;9.53;;;2.60;99.90;;;;;;5112773;28;20024;-86
2022/12/10 10:10:32;;;;;;;19.13;8.63;;;2.60;99.90;;;;;;5112931;28;20016;-83
2022/12/10 10:13:18;;;;;;;19.75;9.15;;;2.60;99.90;;;;;;5113022;28;20020;-87
2022/12/10 10:15:45;;;;;;;19.53;9.43;;;2.60;99.90;;;;;;5113244;28;20044;-85
2022/12/10 10:18:29;;;;;;;19.17;9.07;;;2.60;99.90;;;;;;5112863;28;20042;-89
2022/12/10 10:20:56;;;;;;;19.80;9.00;;;2.70;99.90;;;;;;5112913;28;20114;-84
2022/12/10 10:23:21;;;;;;;20.83;10.03;;;2.70;99.90;;;;;;5112791;28;20121;-88
2022/12/10 10:25:47;;;;;;;21.93;10.10;;;2.70;99.90;;;;;;5107912;28;20062;-87
2022/12/10 10:28:22;;;;;;;23.43;9.97;;;2.70;99.90;;;;;;5099264;28;20034;-87
2022/12/10 10:30:50;;;;;;;18.03;8.87;;;2.80;99.90;;;;;;5114829;28;20028;-85
2022/12/10 10:33:16;;;;;;;22.73;9.83;;;2.80;99.90;;;;;;5108904;28;20483;-82
2022/12/10 10:35:52;;;;;;;22.57;10.20;;;2.80;99.90;;;;;;5113895;28;20111;-84
2022/12/10 10:38:24;;;;;;;19.37;9.57;;;2.80;99.90;;;;;;5105437;28;20048;-81
2022/12/10 10:40:58;;;;;;;21.38;9.43;;;2.80;99.90;;;;;;5103528;28;20032;-81
2022/12/10 10:43:27;;;;;;;22.47;10.07;;;2.80;99.90;;;;;;5111518;28;20085;-83
2022/12/10 10:46:00;;;;;;;20.93;10.00;;;2.80;99.90;;;;;;5101796;28;20027;-87
2022/12/10 10:48:27;;;;;;;22.80;11.07;;;2.80;99.90;;;;;;5108318;28;20028;-84
2022/12/10 10:50:57;;;;;;;20.80;9.70;;;2.90;99.90;;;;;;5103477;28;20032;-91
2022/12/10 10:53:52;;;;;;;17.47;8.90;;;2.90;99.90;;;;;;5112309;28;20032;-80
2022/12/10 10:56:23;;;;;;;21.80;9.67;;;2.90;99.90;;;;;;5112974;28;20028;-80
2022/12/10 10:59:05;;;;;;;20.47;9.30;;;2.90;99.90;;;;;;5102633;28;20072;-85
2022/12/10 11:01:45;;;;;;;;;;;2.90;99.90;;;;;;5111993;28;20020;-84
2022/12/10 11:04:12;;;;;;;21.00;9.90;;;2.90;99.90;;;;;;5115542;28;20004;-83
2022/12/10 11:06:40;;;;;;;21.17;9.27;;;2.90;99.90;;;;;;5111580;28;20530;-83
2022/12/10 11:09:06;;;;;;;19.07;9.23;;;2.90;99.90;;;;;;5116310;28;20034;-83
2022/12/10 11:11:40;;;;;;;20.37;9.60;;;2.90;99.90;;;;;;5112002;28;20098;-84
2022/12/10 11:14:24;;;;;;;22.77;9.73;;;2.90;99.90;;;;;;5098022;28;20073;-83
2022/12/10 11:16:56;;;;;;;22.63;9.30;;;2.90;99.90;;;;;;5109073;28;20043;-81
2022/12/10 11:19:23;;;;;;;17.83;8.45;;;3.00;99.90;;;;;;5112933;28;20047;-84
2022/12/10 11:21:49;;;;;;;19.67;9.97;;;3.10;99.90;;;;;;5096701;28;20028;-83
2022/12/10 11:24:18;;;;;;;22.33;9.63;;;3.10;99.90;;;;;;5096628;28;20032;-83
2022/12/10 11:27:04;;;;;;;20.70;9.37;;;3.10;99.90;;;;;;5102214;28;20074;-85
2022/12/10 11:29:57;;;;;;;20.30;9.50;;;3.20;99.90;;;;;;5113388;28;20020;-82
2022/12/10 11:32:41;;;;;;;19.42;9.23;;;3.10;99.90;;;;;;5100525;28;20027;-82
2022/12/10 11:35:50;;;;;;;22.50;9.43;;;3.10;99.90;;;;;;5115325;28;20035;-84
2022/12/10 11:38:16;;;;;;;16.90;8.20;;;3.10;99.90;;;;;;5014004;28;20034;-85
2022/12/10 11:41:01;;;;;;;19.50;9.93;;;3.20;99.90;;;;;;5094874;28;20496;-85
2022/12/10 11:44:12;;;;;;;19.33;8.63;;;3.20;99.90;;;;;;5096763;28;20034;-84
2022/12/10 11:47:20;;;;;;;21.23;9.73;;;3.20;99.90;;;;;;5106395;28;20051;-83
2022/12/10 11:50:10;;;;;;;18.73;8.97;;;3.30;99.90;;;;;;5095645;28;20678;-84
2022/12/10 11:53:04;;;;;;;18.83;9.23;;;3.30;99.90;;;;;;5106893;28;20026;-82
2022/12/10 11:55:48;;;;;;;21.33;9.70;;;3.30;99.90;;;;;;5115525;28;20028;-84
2022/12/10 11:58:56;;;;;;;19.17;9.80;;;3.40;99.90;;;;;;5114932;28;20067;-82
2022/12/10 12:01:36;;;;;;;18.00;8.70;;;3.40;99.90;;;;;;5055761;28;20032;-81
2022/12/10 12:04:26;;;;;;;18.43;9.10;;;3.50;99.90;;;;;;5112086;28;20020;-82
2022/12/10 12:07:30;;;;;;;19.87;9.40;;;3.50;99.90;;;;;;5100364;28;20141;-84
2022/12/10 12:10:16;;;;;;;18.23;8.90;;;3.40;99.90;;;;;;5056377;28;20032;-83
2022/12/10 12:13:11;;;;;;;14.20;8.07;;;3.50;99.90;;;;;;5114233;28;20098;-86
2022/12/10 12:15:46;;;;;;;17.37;8.50;;;3.40;99.90;;;;;;5107633;28;20123;-83
2022/12/10 12:18:23;;;;;;;20.10;9.00;;;3.50;99.90;;;;;;5107805;28;20024;-76
2022/12/10 12:20:56;;;;;;;17.33;8.47;;;3.50;99.90;;;;;;5112895;28;20043;-79
2022/12/10 12:23:36;;;;;;;16.87;8.60;;;3.50;99.90;;;;;;5100495;28;20035;-79
2022/12/10 12:26:08;;;;;;;18.77;8.83;;;3.60;99.90;;;;;;5107473;28;20358;-78
2022/12/10 12:28:54;;;;;;;17.90;9.20;;;3.60;99.90;;;;;;5110142;28;20077;-79
2022/12/10 12:31:25;;;;;;;20.07;8.93;;;3.60;99.90;;;;;;5103448;28;20038;-84
2022/12/10 12:34:23;;;;;;;17.30;9.50;;;3.70;99.90;;;;;;5104287;28;20365;-86
2022/12/10 12:36:50;;;;;;;18.83;9.70;;;3.80;99.90;;;;;;5093894;28;20031;-83
2022/12/10 12:39:36;;;;;;;16.23;8.60;;;3.90;99.90;;;;;;5113923;28;20028;-83
2022/12/10 12:42:04;;;;;;;16.57;8.90;;;3.90;99.90;;;;;;5098920;28;20514;-83
2022/12/10 12:44:43;;;;;;;15.00;8.33;;;3.80;99.90;;;;;;5107541;28;20055;-79
2022/12/10 12:47:30;;;;;;;16.97;8.60;;;3.80;99.90;;;;;;5104143;28;20028;-87
2022/12/10 12:49:58;;;;;;;18.60;8.90;;;3.80;99.90;;;;;;5111666;28;20023;-79
2022/12/10 12:52:39;;;;;;;20.13;9.10;;;3.80;99.90;;;;;;5101107;28;20027;-82
2022/12/10 12:55:20;;;;;;;18.00;9.70;;;3.70;99.90;;;;;;5109028;28;20828;-82
2022/12/10 12:57:53;;;;;;;20.40;9.18;;;3.70;99.90;;;;;;5108441;28;20070;-89
2022/12/10 13:00:23;;;;;;;19.60;9.20;;;3.60;99.90;;;;;;5113668;28;20405;-82
2022/12/10 13:03:08;;;;;;;15.80;8.57;;;3.70;99.90;;;;;;5105625;28;20086;-91
2022/12/10 13:05:38;;;;;;;18.10;8.37;;;3.60;99.90;;;;;;5094310;28;20033;-90
2022/12/10 13:08:18;;;;;;;16.17;7.83;;;3.60;99.90;;;;;;5114294;28;20524;-88
2022/12/10 13:11:10;;;;;;;18.57;8.27;;;3.50;99.90;;;;;;5105424;28;20084;-84
2022/12/10 13:14:04;;;;;;;19.02;8.82;;;3.50;99.90;;;;;;5100243;28;20040;-74